createdAt,value
2018-03-24T00:03:31.297Z,10.22
2018-03-24T00:08:32.671Z,10.28
2018-03-24T00:13:34.116Z,10.28
2018-03-24T00:18:35.487Z,10.28
2018-03-24T00:23:37.029Z,10.15
2018-03-24T00:28:38.462Z,10.10
2018-03-24T00:33:39.858Z,10.12
2018-03-24T00:38:41.348Z,10.10
2018-03-24T00:43:42.739Z,10.11
2018-03-24T00:48:44.151Z,10.10
2018-03-24T00:53:45.500Z,10.10
2018-03-24T00:58:46.897Z,9.98
2018-03-24T01:03:48.218Z,9.71
2018-03-24T01:08:49.643Z,9.70
2018-03-24T01:13:51.757Z,9.58
2018-03-24T01:18:53.859Z,9.75
2018-03-24T01:23:55.954Z,9.81
2018-03-24T01:28:57.474Z,9.69
2018-03-24T01:33:58.913Z,9.72
2018-03-24T01:39:00.285Z,9.71
2018-03-24T01:44:01.738Z,9.59
2018-03-24T01:49:03.825Z,9.45
2018-03-24T01:54:05.201Z,9.54
2018-03-24T01:59:06.639Z,9.70
2018-03-24T02:04:08.900Z,9.52
2018-03-24T02:09:10.510Z,9.57
2018-03-24T02:14:12.087Z,9.56
2018-03-24T02:19:13.576Z,9.54
2018-03-24T02:24:15.015Z,9.51
2018-03-24T02:29:17.076Z,9.55
2018-03-24T02:34:18.429Z,9.70
2018-03-24T02:39:19.790Z,9.67
2018-03-24T02:44:21.161Z,9.76
2018-03-24T02:49:22.514Z,9.80
2018-03-24T02:54:23.883Z,9.66
2018-03-24T02:59:26.284Z,9.64
2018-03-24T03:04:27.732Z,9.63
2018-03-24T03:09:29.168Z,9.61
2018-03-24T03:14:30.557Z,9.59
2018-03-24T03:19:31.929Z,9.61
2018-03-24T03:24:33.295Z,9.63
2018-03-24T03:29:34.643Z,9.61
2018-03-24T03:34:36.060Z,9.61
2018-03-24T03:39:37.626Z,9.61
2018-03-24T03:44:39.111Z,9.62
2018-03-24T03:49:40.646Z,9.61
2018-03-24T03:54:42.053Z,9.66
2018-03-24T03:59:43.473Z,9.42
2018-03-24T04:04:44.881Z,9.25
2018-03-24T04:09:46.236Z,9.20
2018-03-24T04:14:47.592Z,9.00
2018-03-24T04:19:48.982Z,8.99
2018-03-24T04:24:50.444Z,9.10
2018-03-24T04:29:52.586Z,9.12
2018-03-24T04:34:53.946Z,9.02
2018-03-24T04:39:55.345Z,9.18
2018-03-24T04:44:56.696Z,9.25
2018-03-24T04:49:58.101Z,9.18
2018-03-24T04:54:59.467Z,9.16
2018-03-24T05:00:00.816Z,9.21
2018-03-24T05:05:02.199Z,9.08
2018-03-24T05:10:04.331Z,9.29
2018-03-24T05:15:05.772Z,9.39
2018-03-24T05:20:07.203Z,9.27
2018-03-24T05:25:09.358Z,9.03
2018-03-24T05:30:10.804Z,8.95
2018-03-24T05:35:12.157Z,9.18
2018-03-24T05:40:15.156Z,9.21
2018-03-24T05:45:16.651Z,9.17
2018-03-24T05:50:17.999Z,9.22
2018-03-24T05:55:20.108Z,9.24
2018-03-24T06:00:22.236Z,9.28
2018-03-24T06:05:23.594Z,9.39
2018-03-24T06:10:24.926Z,9.54
2018-03-24T06:15:26.319Z,9.79
2018-03-24T06:20:27.643Z,9.92
2018-03-24T06:25:29.052Z,9.80
2018-03-24T06:30:31.419Z,9.98
2018-03-24T06:35:32.817Z,9.65
2018-03-24T06:40:34.202Z,9.62
2018-03-24T06:45:35.619Z,9.74
2018-03-24T06:50:37.031Z,9.90
2018-03-24T06:55:38.452Z,10.11
2018-03-24T07:00:39.890Z,10.39
2018-03-24T07:05:41.271Z,10.59
2018-03-24T07:10:42.662Z,10.81
2018-03-24T07:15:44.058Z,11.00
2018-03-24T07:20:45.387Z,11.11
2018-03-24T07:25:47.515Z,11.20
2018-03-24T07:30:48.852Z,11.37
2018-03-24T07:35:50.997Z,11.65
2018-03-24T07:40:53.123Z,11.92
2018-03-24T07:45:54.522Z,12.13
2018-03-24T07:50:55.882Z,12.31
2018-03-24T07:55:57.988Z,12.49
2018-03-24T08:01:00.091Z,12.78
2018-03-24T08:06:01.528Z,13.04
2018-03-24T08:11:02.918Z,13.24
2018-03-24T08:16:04.285Z,13.00
2018-03-24T08:21:05.681Z,13.34
2018-03-24T08:26:07.884Z,13.66
2018-03-24T08:31:10.085Z,13.81
2018-03-24T08:36:11.476Z,13.88
2018-03-24T08:41:12.865Z,14.03
2018-03-24T08:46:14.207Z,14.26
2018-03-24T08:51:15.566Z,14.45
2018-03-24T08:56:16.911Z,14.64
2018-03-24T09:01:18.931Z,14.96
2018-03-24T09:06:20.310Z,14.99
2018-03-24T09:11:21.676Z,15.15
2018-03-24T09:16:27.160Z,15.24
2018-03-24T09:21:28.779Z,15.58
2018-03-24T09:26:30.209Z,15.26
2018-03-24T09:31:31.580Z,15.39
2018-03-24T09:36:32.947Z,15.49
2018-03-24T09:41:34.345Z,15.34
2018-03-24T09:46:35.964Z,15.43
2018-03-24T09:51:37.432Z,15.53
2018-03-24T09:56:38.818Z,15.58
2018-03-24T10:01:40.261Z,15.47
2018-03-24T10:06:41.668Z,15.38
2018-03-24T10:11:43.086Z,15.69
2018-03-24T10:16:44.537Z,16.02
2018-03-24T10:27:24.431Z,16.34
2018-03-24T10:32:26.568Z,16.50
2018-03-24T10:37:28.656Z,16.38
2018-03-24T10:42:30.840Z,16.35
2018-03-24T10:47:34.696Z,16.48
2018-03-24T10:52:36.073Z,16.22
2018-03-24T10:57:37.387Z,16.60
2018-03-24T11:02:39.614Z,16.80
2018-03-24T11:07:41.562Z,16.56
2018-03-24T11:12:42.887Z,16.15
2018-03-24T11:17:44.988Z,16.01
2018-03-24T11:22:46.344Z,16.34
2018-03-24T11:27:47.723Z,16.48
2018-03-24T11:32:49.091Z,16.16
2018-03-24T11:37:50.449Z,16.27
2018-03-24T11:42:51.826Z,15.79
2018-03-24T11:47:53.207Z,15.03
2018-03-24T11:52:54.580Z,14.81
2018-03-24T11:57:55.888Z,14.34
2018-03-24T12:02:57.202Z,14.19
2018-03-24T12:07:58.584Z,14.68
2018-03-24T12:12:59.926Z,15.02
2018-03-24T12:18:01.349Z,15.89
2018-03-24T12:23:02.774Z,16.54
2018-03-24T12:28:04.207Z,16.76
2018-03-24T12:33:05.603Z,16.92
2018-03-24T12:38:06.942Z,17.21
2018-03-24T12:43:09.154Z,17.12
2018-03-24T12:48:10.529Z,17.35
2018-03-24T12:53:11.891Z,17.43
2018-03-24T12:58:13.312Z,17.47
2018-03-24T13:03:15.556Z,17.66
2018-03-24T13:08:16.892Z,17.63
2018-03-24T13:13:18.249Z,17.53
2018-03-24T13:18:20.337Z,17.32
2018-03-24T13:23:21.675Z,17.10
2018-03-24T13:28:23.213Z,16.00
2018-03-24T13:33:24.542Z,15.99
2018-03-24T13:38:25.875Z,15.59
2018-03-24T13:43:28.057Z,15.15
2018-03-24T13:48:29.535Z,15.15
2018-03-24T13:53:30.900Z,15.59
2018-03-24T13:58:33.067Z,16.06
2018-03-24T14:03:34.413Z,16.22
2018-03-24T14:08:36.706Z,16.48
2018-03-24T14:13:38.033Z,16.63
2018-03-24T14:18:39.399Z,16.48
2018-03-24T14:23:41.469Z,16.67
2018-03-24T14:28:42.827Z,16.64
2018-03-24T14:33:44.151Z,16.55
2018-03-24T14:38:46.332Z,16.08
2018-03-24T14:43:47.661Z,15.79
2018-03-24T14:48:48.994Z,15.32
2018-03-24T14:53:50.319Z,15.27
2018-03-24T14:58:51.645Z,15.02
2018-03-24T15:03:54.457Z,15.08
2018-03-24T15:08:55.898Z,15.02
2018-03-24T15:13:58.516Z,15.16
2018-03-24T15:18:59.879Z,15.36
2018-03-24T15:24:01.305Z,15.78
2018-03-24T15:29:21.195Z,15.85
2018-03-24T15:34:41.854Z,15.71
2018-03-24T15:39:43.230Z,15.84
2018-03-24T15:44:44.600Z,15.56
2018-03-24T15:49:45.914Z,15.06
2018-03-24T15:54:47.337Z,15.18
2018-03-24T15:59:48.730Z,15.02
2018-03-24T16:04:50.079Z,14.82
2018-03-24T16:09:52.155Z,14.65
2018-03-24T16:14:53.500Z,14.51
2018-03-24T16:19:54.835Z,14.42
2018-03-24T16:24:56.214Z,14.45
2018-03-24T16:29:57.535Z,14.32
2018-03-24T16:34:59.695Z,14.38
2018-03-24T16:40:01.104Z,14.28
2018-03-24T16:45:02.535Z,14.38
2018-03-24T16:50:03.922Z,14.30
2018-03-24T16:55:06.031Z,14.22
2018-03-24T17:00:08.178Z,14.31
2018-03-24T17:05:10.213Z,14.15
2018-03-24T17:10:11.549Z,13.98
2018-03-24T17:15:13.103Z,13.82
2018-03-24T17:20:14.452Z,13.78
2018-03-24T17:25:15.819Z,13.77
2018-03-24T17:30:17.148Z,13.79
2018-03-24T17:35:19.067Z,13.69
2018-03-24T17:40:20.452Z,13.57
2018-03-24T17:45:21.794Z,13.54
2018-03-24T17:50:23.909Z,12.94
2018-03-24T17:55:25.242Z,12.85
2018-03-24T18:00:27.456Z,12.77
2018-03-24T18:05:28.843Z,12.62
2018-03-24T18:10:30.195Z,12.52
2018-03-24T18:15:31.632Z,12.38
2018-03-24T18:20:33.026Z,12.35
2018-03-24T18:25:34.523Z,12.57
2018-03-24T18:30:35.866Z,12.53
2018-03-24T18:35:37.219Z,12.52
2018-03-24T18:40:38.652Z,12.55
2018-03-24T18:45:39.990Z,12.48
2018-03-24T18:50:41.320Z,12.45
2018-03-24T18:55:42.632Z,12.39
2018-03-24T19:00:50.727Z,12.34
2018-03-24T19:05:52.881Z,12.39
2018-03-24T19:10:54.259Z,12.44
2018-03-24T19:15:55.672Z,12.40
2018-03-24T19:20:56.994Z,12.18
2018-03-24T19:25:58.330Z,12.17
2018-03-24T19:30:59.660Z,12.04
2018-03-24T19:36:01.406Z,11.90
2018-03-24T19:41:02.863Z,11.82
2018-03-24T19:46:04.273Z,11.74
2018-03-24T19:51:06.335Z,11.72
2018-03-24T19:56:07.670Z,11.62
2018-03-24T20:01:09.745Z,11.54
2018-03-24T20:06:11.170Z,11.38
2018-03-24T20:11:12.500Z,11.33
2018-03-24T20:16:13.931Z,11.12
2018-03-24T20:21:16.466Z,11.07
2018-03-24T20:26:18.625Z,11.16
2018-03-24T20:31:19.958Z,11.09
2018-03-24T20:36:21.267Z,11.00
2018-03-24T20:41:23.526Z,10.91
2018-03-24T20:46:25.122Z,10.86
2018-03-24T20:51:26.480Z,10.58
2018-03-24T20:56:27.816Z,10.51
2018-03-24T21:01:29.220Z,10.31
2018-03-24T21:06:30.636Z,10.15
2018-03-24T21:11:32.076Z,10.05
2018-03-24T21:16:33.524Z,9.91
2018-03-24T21:21:34.898Z,9.76
2018-03-24T21:26:37.101Z,9.70
2018-03-24T21:31:39.214Z,9.55
2018-03-24T21:36:41.323Z,9.61
2018-03-24T21:41:43.477Z,9.48
2018-03-24T21:46:44.825Z,9.47
2018-03-24T21:51:46.168Z,9.43
2018-03-24T21:56:47.506Z,9.34
2018-03-24T22:01:49.601Z,9.28
2018-03-24T22:06:50.967Z,9.07
2018-03-24T22:11:52.296Z,9.19
2018-03-24T22:16:54.384Z,9.10
2018-03-24T22:21:55.745Z,8.93
2018-03-24T22:26:57.141Z,8.84
2018-03-24T22:31:58.454Z,8.84
2018-03-24T22:36:59.835Z,8.72
2018-03-24T22:42:03.024Z,8.64
2018-03-24T22:47:04.392Z,8.60
2018-03-24T22:52:06.463Z,8.49
2018-03-24T22:57:07.786Z,8.52
2018-03-24T23:02:09.895Z,8.64
2018-03-24T23:07:12.036Z,8.65
2018-03-24T23:12:13.411Z,8.32
2018-03-24T23:17:14.747Z,7.93
2018-03-24T23:22:16.084Z,7.78
2018-03-24T23:27:17.459Z,7.89
2018-03-24T23:32:19.570Z,7.68
2018-03-24T23:37:21.656Z,7.75
2018-03-24T23:42:23.037Z,7.70
2018-03-24T23:47:24.358Z,7.83
2018-03-24T23:52:26.484Z,7.67
2018-03-24T23:57:27.804Z,7.76
